Home > Products > Valid Products > MTR

000
SAUS45 KGGW 212349
MTRJDN
METAR KJDN 212348Z AUTO 00000KT 01/M02 A2972 RMK AO1 SLP094
T00111017 10078 20011 53001





000
SAUS45 KGGW 212249
MTRJDN
METAR KJDN 212248Z AUTO 24005KT 06/M01 A2972 RMK AO1 SLP087
T00611006





000
SAUS45 KGGW 212049
MTRJDN
METAR KJDN 212048Z AUTO 26005KT 08/M01 A2972 RMK AO1 SLP088
T00781011 56012





000
SAUS45 KGGW 211953
MTRJDN
METAR KJDN 211948Z AUTO 25005KT 07/M02 A2973 RMK AO1 SLP091
T00721
NO CARRIER

RING

CONNECT 1200

SFOMTRBLU ALL
TTAA00 KBLU 211952
METAR KBLU 211952Z AUTO 20005KT 10SM CLR 06/01 A3010 RMK AO2 SLP177
T00610006





000
SAUS45 KGGW 211849
MTRJDN
METAR KJDN 211848Z AUTO 26006KT 06/M02 A2974 RMK AO1 SLP099
T00611017





000
SAUS45 KGGW 211749
MTRJDN
METAR KJDN 211748Z AUTO 31004KT 04/M02 A2975 RMK AO1 SLP105
T00441022 10044 21061 53001





000
SAUS45 KGGW 211649
MTRJDN
METAR KJDN 211648Z AUTO 28005KT 03/M03 A2975 RMK AO1 SLP108
T00331033





000
SAUS45 KGGW 211549
MTRJDN
METAR KJDN 211548Z AUTO 28005KT 00/M05 A2974 RMK AO1 SLP109
T00001050





000
SAUS45 KGGW 211450
MTRJDN
METAR KJDN 211448Z AUTO 27007KT M03/M07 A2975 RMK AO1 SLP112
T10331067 53007





000
SAUS45 KGGW 211349
MTRJDN
METAR KJDN 211348Z AUTO 29004KT M06/M08 A2974 RMK AO1 SLP111
T10561078





000
SAUS45 KGGW 211250
MTRJDN
METAR KJDN 211248Z AUTO 29007KT M04/M07 A2972 RMK AO1 SLP103
T10441067





000
SAUS45 KGGW 211149
MTRJDN
METAR KJDN 211148Z AUTO 30006KT M04/M06 A2973 RMK AO1 SLP103 7////
T10391061 11022 21072 56007





000
SAUS45 KGGW 211049
MTRJDN
METAR KJDN 211048Z AUTO 30006KT M03/M06 A2974 RMK AO1 SLP101
T10281056





000
SAUS45 KGGW 210949
MTRJDN
METAR KJDN 210948Z AUTO 32005KT M03/M06 A2973 RMK AO1 SLP099
T10331056





000
SAUS45 KGGW 210849
MTRJDN
METAR KJDN 210848Z AUTO 30004KT M06/M08 A2975 RMK AO1 SLP108
T10611078 58001





000
SAUS45 KGGW 210749
MTRJDN
METAR KJDN 210748Z AUTO 29005KT M05/M07 A2975 RMK AO1 SLP107
T10501072





000
SAUS45 KGGW 210649
MTRJDN
METAR KJDN 210648Z AUTO 29006KT M07/M08 A2976 RMK AO1 SLPNO
T10671078 400171167





000
SAUS45 KGGW 210549
MTRJDN
METAR KJDN 210548Z AUTO 28003KT M07/M08 A2975 RMK AO1 SLP114
T10671083 11039 21089 56005





000
SAUS45 KGGW 210449
MTRJDN
METAR KJDN 210448Z AUTO 00000KT M08/M09 A2976 RMK AO1 SLP124
T10831094





000
SAUS45 KGGW 210349
MTRJDN
METAR KJDN 210348Z AUTO 00000KT M08/M09 A2976 RMK AO1 SLP127
T10831094





000
SAUS45 KGGW 210349
MTRJDN
METAR KJDN 210348Z AUTO 00000KT M08/M09 A2976 RMK AO1 SLP127
T10831094





000
SAUS45 KGGW 210249
MTRJDN
METAR KJDN 210248Z AUTO 00000KT M07/M09 A2977 RMK AO1 SLP131
T10671089 55004





000
SAUS45 KGGW 210149
MTRJDN
METAR KJDN 210148Z AUTO 29003KT M07/M08 A2977 RMK AO1 SLP130
T10671078





000
SAUS45 KGGW 210049
MTRJDN
METAR KJDN 210048Z AUTO 27004KT M06/M08 A2978 RMK AO1 SLP130
T10561078





000
SAUS45 KGGW 202349
MTRJDN
METAR KJDN 202348Z AUTO 29004KT M04/M07 A2978 RMK AO1 SLP131 6////
T10391067 56006





000
SAUS45 KGGW 202249
MTRJDN
METAR KJDN 202248Z AUTO 00000KT 00/M04 A2979 RMK AO1 SLP126
T00001044





000
SAUS45 KGGW 202149
MTRJDN
METAR KJDN 202148Z AUTO 00000KT 01/M04 A2979 RMK AO1 SLP125
T00111044





000
SAUS45 KGGW 202049
MTRJDN
METAR KJDN 202048Z AUTO 00000KT 01/M05 A2980 RMK AO1 SLP128 6////
T00061050 56020





000
SAUS45 KGGW 201949
MTRJDN
METAR KJDN 201948Z AUTO 00000KT 00/M06 A2982 RMK AO1 SLP135
T00001056





000
SAUS45 KGGW 201849
MTRJDN
METAR KJDN 201848Z AUTO A2984 RMK AO1 SLPNO PNO $





000
SAUS45 KGGW 201749
MTRJDN
METAR KJDN 201748Z AUTO 00000KT M04/M08 A2987 RMK AO1 SLP155
T10391078 11039 21167 58006





000
SAUS45 KGGW 201649
MTRJDN
METAR KJDN 201648Z AUTO 00000KT M09/M12 A2989 RMK AO1 SLP167
T10941117





000
SAUS45 KGGW 192349
MTRJDN
METAR KJDN 192348Z AUTO 32007KT M04/M08 A3006 RMK AO1 SLP219
T10441078 11039 21044 55005





000
SAUS45 KGGW 192249
MTRJDN
METAR KJDN 192248Z AUTO 33009KT M04/M08 A3006 RMK AO1 SLP218
T10441078





000
SAUS45 KGGW 192149
MTRJDN
METAR KJDN 192148Z AUTO 32010KT M04/M08 A3006 RMK AO1 SLP219
T10391078





000
SAUS45 KGGW 192049
MTRJDN
METAR KJDN 192048Z AUTO 32010KT M04/M08 A3007 RMK AO1 SLP223
T10391078 56022





000
SAUS45 KGGW 191949
MTRJDN
METAR KJDN 191948Z AUTO 33013KT M04/M08 A3009 RMK AO1 SLP230
T10441078





000
SAUS45 KGGW 191849
MTRJDN
METAR KJDN 191848Z AUTO 32010KT M04/M08 A3012 RMK AO1 SLP237
T10391083





000
SAUS45 KGGW 191752
MTRJDN
METAR KJDN 191748Z AUTO 36008KT M04/M08 A3014 RMK AO1 SLP246
T10441083
NO CARRIER

RING

CONNECT 1200

BOIMTRSNT ALL
TTAA00 KSNT 191751
METAR KSNT 191751Z AUTO 00000KT M10/M14 A3018 RMK AO1 SLP272
T11001144 11094 21172 58006





000
SAUS45 KGGW 191649
MTRJDN
METAR KJDN 191648Z AUTO 34011KT M05/M09 A3015 RMK AO1 SLP246
T10501089





000
SAUS45 KGGW 191549
MTRJDN
METAR KJDN 191548Z AUTO 35007KT M05/M08 A3014 RMK AO1 SLP242
T10501083





000
SAUS45 KGGW 191449
MTRJDN
METAR KJDN 191448Z AUTO 33012KT M05/M08 A3013 RMK AO1 SLP241
T10501078 51001





000
SAUS45 KGGW 191349
MTRJDN
METAR KJDN 191348Z AUTO 33007KT M04/M07 A3014 RMK AO1 SLP240
T10441072





000
SAUS45 KGGW 191249
MTRJDN
METAR KJDN 191248Z AUTO 34005KT M04/M07 A3014 RMK AO1 SLP241
T10441067





000
SAUS45 KGGW 191149
MTRJDN
METAR KJDN 191148Z AUTO 27006KT M04/M07 A3013 RMK AO1 SLP239
T10441072 11022 21044 50004





000
SAUS45 KGGW 191049
MTRJDN
METAR KJDN 191048Z AUTO 32006KT M04/M07 A3013 RMK AO1 SLP237
T10441072





000
SAUS45 KGGW 190949
MTRJDN
METAR KJDN 190948Z AUTO 32006KT M04/M07 A3013 RMK AO1 SLP235
T10441067





000
SAUS45 KGGW 190949
MTRJDN
METAR KJDN 190948Z AUTO 32006KT M04/M07 A3013 RMK AO1 SLP235
T10441067





000
SAUS45 KGGW 190849
MTRJDN
METAR KJDN 190848Z AUTO 34010KT M04/M07 A3012 RMK AO1 SLP231
T10391072 50005





000
SAUS45 KGGW 190749
MTRJDN
METAR KJDN 190748Z AUTO 36006KT M04/M07 A3012 RMK AO1 SLP233
T10391067





000
SAUS45 KGGW 190649
MTRJDN
METAR KJDN 190648Z AUTO 34009KT M03/M06 A3011 RMK AO1 SLP225
T10281061 400331217





000
SAUS45 KGGW 190549
MTRJDN
METAR KJDN 190548Z AUTO 34009KT M02/M06 A3010 RMK AO1 SLP226
T10221061 10011 21022 53017





000
SAUS45 KGGW 190449
MTRJDN
METAR KJDN 190448Z AUTO 34013KT M02/M06 A3008 RMK AO1 SLP220
T10171056





000
SAUS45 KGGW 190350
MTRJDN
METAR KJDN 190348Z AUTO 33015G22KT M01/M04 A3006 RMK AO1 SLP211
T10061044





000
SAUS45 KGGW 190249
MTRJDN
METAR KJDN 190248Z AUTO 35014KT 00/M04 A3005 RMK AO1 SLP208
T00001039 53022





000
SAUS45 KGGW 190152
MTRJDN
METAR KJD
NO CARRIER

RING

CONNECT 1200

BOIMTRSNT ALL
TTAA00 KSNT 190151
METAR KSNT 190151Z AUTO 00000KT M11/M13 A3021 RMK AO1 SLP291
T11111133





000
SAUS45 KGGW 190049
MTRJDN
METAR KJDN 190048Z AUTO 32018KT 01/M03 A3000 RMK AO1 SLP193
T00111033





    US Dept of Commerce
    National Oceanic and Atmospheric Administration
    National Weather Service
    1325 East West Highway
    Silver Spring, MD 20910
    Page Author: NWS Internet Services Team
Disclaimer
Information Quality
Credits
Glossary
Privacy Policy
Freedom of Information Act (FOIA)
About Us
Career Opportunities